sensor_id;sensor_type;location;lat;lon;timestamp;P1;durP1;ratioP1;P2;durP2;ratioP2
39930;SDS011;26635;-35.248;149.138;2023-08-01T00:01:42;4.15;;;0.63;;
39930;SDS011;26635;-35.248;149.138;2023-08-01T00:04:13;7.55;;;0.70;;
39930;SDS011;26635;-35.248;149.138;2023-08-01T00:06:45;2.35;;;0.52;;
39930;SDS011;26635;-35.248;149.138;2023-08-01T00:09:15;2.58;;;0.40;;
39930;SDS011;26635;-35.248;149.138;2023-08-01T00:11:46;3.97;;;0.50;;
39930;SDS011;26635;-35.248;149.138;2023-08-01T00:14:17;2.40;;;0.40;;
39930;SDS011;26635;-35.248;149.138;2023-08-01T00:16:48;3.53;;;0.80;;
39930;SDS011;26635;-35.248;149.138;2023-08-01T00:19:20;2.63;;;0.75;;
39930;SDS011;26635;-35.248;149.138;2023-08-01T00:21:50;2.17;;;0.40;;
39930;SDS011;26635;-35.248;149.138;2023-08-01T00:24:21;2.80;;;0.50;;
39930;SDS011;26635;-35.248;149.138;2023-08-01T00:26:51;3.40;;;1.27;;
39930;SDS011;26635;-35.248;149.138;2023-08-01T00:29:24;1.80;;;0.93;;
39930;SDS011;26635;-35.248;149.138;2023-08-01T00:31:54;5.22;;;0.73;;
39930;SDS011;26635;-35.248;149.138;2023-08-01T00:34:25;2.63;;;1.02;;
39930;SDS011;26635;-35.248;149.138;2023-08-01T00:36:55;2.42;;;0.90;;
39930;SDS011;26635;-35.248;149.138;2023-08-01T00:39:27;5.25;;;0.70;;
39930;SDS011;26635;-35.248;149.138;2023-08-01T00:41:57;2.63;;;0.32;;
39930;SDS011;26635;-35.248;149.138;2023-08-01T00:44:31;1.25;;;0.70;;
39930;SDS011;26635;-35.248;149.138;2023-08-01T00:47:01;2.00;;;0.50;;
39930;SDS011;26635;-35.248;149.138;2023-08-01T00:49:33;0.95;;;0.40;;
39930;SDS011;26635;-35.248;149.138;2023-08-01T00:52:04;4.32;;;0.68;;
39930;SDS011;26635;-35.248;149.138;2023-08-01T00:54:35;2.38;;;0.45;;
39930;SDS011;26635;-35.248;149.138;2023-08-01T00:57:05;2.25;;;0.40;;
39930;SDS011;26635;-35.248;149.138;2023-08-01T00:59:37;4.28;;;0.73;;
39930;SDS011;26635;-35.248;149.138;2023-08-01T01:02:09;3.70;;;0.63;;
39930;SDS011;26635;-35.248;149.138;2023-08-01T01:04:40;2.15;;;0.40;;
39930;SDS011;26635;-35.248;149.138;2023-08-01T01:07:10;2.35;;;0.30;;
39930;SDS011;26635;-35.248;149.138;2023-08-01T01:09:42;2.00;;;0.60;;
39930;SDS011;26635;-35.248;149.138;2023-08-01T01:12:12;1.55;;;0.32;;
39930;SDS011;26635;-35.248;149.138;2023-08-01T01:14:43;1.50;;;0.40;;
39930;SDS011;26635;-35.248;149.138;2023-08-01T01:17:14;2.58;;;0.80;;
39930;SDS011;26635;-35.248;149.138;2023-08-01T01:19:44;1.77;;;0.32;;
39930;SDS011;26635;-35.248;149.138;2023-08-01T01:22:14;3.60;;;0.95;;
39930;SDS011;26635;-35.248;149.138;2023-08-01T01:24:45;4.70;;;1.30;;
39930;SDS011;26635;-35.248;149.138;2023-08-01T01:27:17;3.40;;;0.77;;
39930;SDS011;26635;-35.248;149.138;2023-08-01T01:29:49;3.78;;;0.70;;
39930;SDS011;26635;-35.248;149.138;2023-08-01T01:32:20;2.80;;;0.73;;
39930;SDS011;26635;-35.248;149.138;2023-08-01T01:34:50;1.60;;;0.45;;
39930;SDS011;26635;-35.248;149.138;2023-08-01T01:37:22;3.15;;;0.50;;
39930;SDS011;26635;-35.248;149.138;2023-08-01T01:39:53;1.58;;;0.32;;
39930;SDS011;26635;-35.248;149.138;2023-08-01T01:42:23;3.25;;;0.60;;
39930;SDS011;26635;-35.248;149.138;2023-08-01T01:44:54;2.45;;;0.88;;
39930;SDS011;26635;-35.248;149.138;2023-08-01T01:47:24;2.25;;;0.40;;
39930;SDS011;26635;-35.248;149.138;2023-08-01T01:49:55;2.83;;;0.30;;
39930;SDS011;26635;-35.248;149.138;2023-08-01T01:52:25;2.70;;;0.52;;
39930;SDS011;26635;-35.248;149.138;2023-08-01T01:54:57;3.05;;;0.63;;
39930;SDS011;26635;-35.248;149.138;2023-08-01T01:57:28;2.50;;;0.45;;
39930;SDS011;26635;-35.248;149.138;2023-08-01T01:59:59;2.40;;;1.05;;
39930;SDS011;26635;-35.248;149.138;2023-08-01T02:02:30;1.48;;;0.40;;
39930;SDS011;26635;-35.248;149.138;2023-08-01T02:05:00;2.13;;;0.40;;
39930;SDS011;26635;-35.248;149.138;2023-08-01T02:07:33;1.83;;;0.35;;
39930;SDS011;26635;-35.248;149.138;2023-08-01T02:10:04;4.97;;;0.57;;
39930;SDS011;26635;-35.248;149.138;2023-08-01T02:13:38;3.40;;;0.55;;
39930;SDS011;26635;-35.248;149.138;2023-08-01T02:16:10;1.17;;;0.30;;
39930;SDS011;26635;-35.248;149.138;2023-08-01T02:18:43;1.95;;;0.40;;
39930;SDS011;26635;-35.248;149.138;2023-08-01T02:21:17;5.05;;;0.77;;
39930;SDS011;26635;-35.248;149.138;2023-08-01T02:24:16;2.28;;;0.60;;
39930;SDS011;26635;-35.248;149.138;2023-08-01T02:26:57;1.85;;;0.50;;
39930;SDS011;26635;-35.248;149.138;2023-08-01T02:29:28;2.30;;;0.57;;
39930;SDS011;26635;-35.248;149.138;2023-08-01T02:31:58;4.20;;;0.50;;
39930;SDS011;26635;-35.248;149.138;2023-08-01T02:34:29;1.58;;;0.50;;
39930;SDS011;26635;-35.248;149.138;2023-08-01T02:36:59;2.33;;;0.60;;
39930;SDS011;26635;-35.248;149.138;2023-08-01T02:39:29;2.13;;;0.57;;
39930;SDS011;26635;-35.248;149.138;2023-08-01T02:42:00;2.22;;;0.50;;
39930;SDS011;26635;-35.248;149.138;2023-08-01T02:44:31;2.45;;;1.13;;
39930;SDS011;26635;-35.248;149.138;2023-08-01T02:47:01;3.17;;;0.52;;
39930;SDS011;26635;-35.248;149.138;2023-08-01T02:49:32;4.18;;;0.98;;
39930;SDS011;26635;-35.248;149.138;2023-08-01T02:52:02;2.70;;;0.60;;
39930;SDS011;26635;-35.248;149.138;2023-08-01T02:54:33;3.13;;;0.50;;
39930;SDS011;26635;-35.248;149.138;2023-08-01T02:57:03;2.30;;;0.80;;
39930;SDS011;26635;-35.248;149.138;2023-08-01T02:59:34;2.10;;;0.80;;
39930;SDS011;26635;-35.248;149.138;2023-08-01T03:02:05;1.42;;;0.70;;
39930;SDS011;26635;-35.248;149.138;2023-08-01T03:04:36;4.00;;;0.60;;
39930;SDS011;26635;-35.248;149.138;2023-08-01T03:07:12;2.63;;;0.50;;
39930;SDS011;26635;-35.248;149.138;2023-08-01T03:09:44;3.17;;;0.95;;
39930;SDS011;26635;-35.248;149.138;2023-08-01T03:12:14;1.77;;;0.40;;
39930;SDS011;26635;-35.248;149.138;2023-08-01T03:14:45;1.80;;;0.50;;
39930;SDS011;26635;-35.248;149.138;2023-08-01T03:17:16;2.83;;;0.70;;
39930;SDS011;26635;-35.248;149.138;2023-08-01T03:19:46;2.55;;;0.50;;
39930;SDS011;26635;-35.248;149.138;2023-08-01T03:22:17;3.90;;;0.70;;
39930;SDS011;26635;-35.248;149.138;2023-08-01T03:24:48;2.08;;;0.65;;
39930;SDS011;26635;-35.248;149.138;2023-08-01T03:27:19;1.35;;;0.52;;
39930;SDS011;26635;-35.248;149.138;2023-08-01T03:29:49;4.47;;;0.82;;
39930;SDS011;26635;-35.248;149.138;2023-08-01T03:32:19;3.28;;;0.82;;
39930;SDS011;26635;-35.248;149.138;2023-08-01T03:34:51;3.05;;;0.70;;
39930;SDS011;26635;-35.248;149.138;2023-08-01T03:37:21;2.17;;;0.60;;
39930;SDS011;26635;-35.248;149.138;2023-08-01T03:39:51;4.88;;;0.70;;
39930;SDS011;26635;-35.248;149.138;2023-08-01T03:42:22;1.58;;;0.38;;
39930;SDS011;26635;-35.248;149.138;2023-08-01T03:44:53;4.25;;;0.80;;
39930;SDS011;26635;-35.248;149.138;2023-08-01T03:47:24;3.05;;;0.90;;
39930;SDS011;26635;-35.248;149.138;2023-08-01T03:49:55;1.88;;;0.60;;
39930;SDS011;26635;-35.248;149.138;2023-08-01T03:52:27;1.55;;;0.40;;
39930;SDS011;26635;-35.248;149.138;2023-08-01T03:54:57;2.83;;;0.40;;
39930;SDS011;26635;-35.248;149.138;2023-08-01T03:57:28;2.80;;;1.05;;
39930;SDS011;26635;-35.248;149.138;2023-08-01T03:59:59;3.42;;;0.80;;
39930;SDS011;26635;-35.248;149.138;2023-08-01T04:02:32;2.97;;;1.25;;
39930;SDS011;26635;-35.248;149.138;2023-08-01T04:05:02;3.95;;;1.25;;
39930;SDS011;26635;-35.248;149.138;2023-08-01T04:07:33;3.47;;;1.30;;
39930;SDS011;26635;-35.248;149.138;2023-08-01T04:10:04;4.25;;;1.55;;
39930;SDS011;26635;-35.248;149.138;2023-08-01T04:12:37;6.65;;;2.10;;
39930;SDS011;26635;-35.248;149.138;2023-08-01T04:15:08;3.90;;;1.30;;
39930;SDS011;26635;-35.248;149.138;2023-08-01T04:17:39;1.27;;;0.50;;
39930;SDS011;26635;-35.248;149.138;2023-08-01T04:20:10;3.83;;;1.27;;
39930;SDS011;26635;-35.248;149.138;2023-08-01T04:22:41;2.08;;;0.52;;
39930;SDS011;26635;-35.248;149.138;2023-08-01T04:25:13;2.90;;;0.60;;
39930;SDS011;26635;-35.248;149.138;2023-08-01T04:27:44;0.98;;;0.45;;
39930;SDS011;26635;-35.248;149.138;2023-08-01T04:30:15;1.75;;;0.32;;
39930;SDS011;26635;-35.248;149.138;2023-08-01T04:32:47;1.90;;;0.55;;
39930;SDS011;26635;-35.248;149.138;2023-08-01T04:35:18;1.52;;;0.63;;
39930;SDS011;26635;-35.248;149.138;2023-08-01T04:37:48;3.35;;;0.50;;
39930;SDS011;26635;-35.248;149.138;2023-08-01T04:40:19;3.28;;;0.88;;
39930;SDS011;26635;-35.248;149.138;2023-08-01T04:42:49;2.20;;;0.85;;
39930;SDS011;26635;-35.248;149.138;2023-08-01T04:45:20;3.83;;;0.35;;
39930;SDS011;26635;-35.248;149.138;2023-08-01T04:47:50;4.38;;;0.80;;
39930;SDS011;26635;-35.248;149.138;2023-08-01T04:50:21;1.55;;;0.30;;
39930;SDS011;26635;-35.248;149.138;2023-08-01T04:52:52;4.10;;;0.70;;
39930;SDS011;26635;-35.248;149.138;2023-08-01T04:55:22;1.67;;;0.50;;
39930;SDS011;26635;-35.248;149.138;2023-08-01T04:57:53;3.85;;;0.70;;
39930;SDS011;26635;-35.248;149.138;2023-08-01T05:00:24;2.42;;;0.50;;
39930;SDS011;26635;-35.248;149.138;2023-08-01T05:02:55;1.42;;;0.40;;
39930;SDS011;26635;-35.248;149.138;2023-08-01T05:05:26;2.67;;;0.80;;
39930;SDS011;26635;-35.248;149.138;2023-08-01T05:07:57;0.75;;;0.32;;
39930;SDS011;26635;-35.248;149.138;2023-08-01T05:10:28;2.58;;;0.50;;
39930;SDS011;26635;-35.248;149.138;2023-08-01T05:12:59;1.48;;;0.43;;
39930;SDS011;26635;-35.248;149.138;2023-08-01T05:15:29;1.83;;;0.50;;
39930;SDS011;26635;-35.248;149.138;2023-08-01T05:18:00;5.03;;;1.50;;
39930;SDS011;26635;-35.248;149.138;2023-08-01T05:20:30;1.35;;;0.57;;
39930;SDS011;26635;-35.248;149.138;2023-08-01T05:23:02;1.50;;;0.65;;
39930;SDS011;26635;-35.248;149.138;2023-08-01T05:25:32;2.92;;;0.50;;
39930;SDS011;26635;-35.248;149.138;2023-08-01T05:28:03;6.13;;;1.75;;
39930;SDS011;26635;-35.248;149.138;2023-08-01T05:30:34;2.40;;;0.95;;
39930;SDS011;26635;-35.248;149.138;2023-08-01T05:33:04;2.20;;;0.60;;
39930;SDS011;26635;-35.248;149.138;2023-08-01T05:35:35;2.20;;;0.63;;
39930;SDS011;26635;-35.248;149.138;2023-08-01T05:38:05;4.85;;;0.73;;
39930;SDS011;26635;-35.248;149.138;2023-08-01T05:40:37;1.95;;;0.55;;
39930;SDS011;26635;-35.248;149.138;2023-08-01T05:43:17;1.25;;;0.68;;
39930;SDS011;26635;-35.248;149.138;2023-08-01T05:45:48;1.73;;;0.50;;
39930;SDS011;26635;-35.248;149.138;2023-08-01T05:48:19;2.28;;;0.47;;
39930;SDS011;26635;-35.248;149.138;2023-08-01T05:50:50;1.65;;;0.40;;
39930;SDS011;26635;-35.248;149.138;2023-08-01T05:53:23;1.88;;;0.50;;
39930;SDS011;26635;-35.248;149.138;2023-08-01T05:55:56;1.05;;;0.43;;
39930;SDS011;26635;-35.248;149.138;2023-08-01T05:58:26;2.33;;;0.40;;
39930;SDS011;26635;-35.248;149.138;2023-08-01T06:00:57;0.75;;;0.20;;
39930;SDS011;26635;-35.248;149.138;2023-08-01T06:03:28;1.05;;;0.40;;
39930;SDS011;26635;-35.248;149.138;2023-08-01T06:05:59;1.17;;;0.20;;
39930;SDS011;26635;-35.248;149.138;2023-08-01T06:08:32;1.13;;;0.20;;
39930;SDS011;26635;-35.248;149.138;2023-08-01T06:11:02;1.02;;;0.40;;
39930;SDS011;26635;-35.248;149.138;2023-08-01T06:13:33;1.23;;;0.55;;
39930;SDS011;26635;-35.248;149.138;2023-08-01T06:16:04;2.35;;;0.60;;
39930;SDS011;26635;-35.248;149.138;2023-08-01T06:18:34;1.50;;;0.60;;
39930;SDS011;26635;-35.248;149.138;2023-08-01T06:21:04;1.17;;;0.60;;
39930;SDS011;26635;-35.248;149.138;2023-08-01T06:23:35;3.33;;;0.80;;
39930;SDS011;26635;-35.248;149.138;2023-08-01T06:26:05;3.58;;;0.50;;
39930;SDS011;26635;-35.248;149.138;2023-08-01T06:28:35;1.00;;;0.55;;
39930;SDS011;26635;-35.248;149.138;2023-08-01T06:31:06;3.00;;;1.08;;
39930;SDS011;26635;-35.248;149.138;2023-08-01T06:33:37;0.70;;;0.30;;
39930;SDS011;26635;-35.248;149.138;2023-08-01T06:36:07;0.68;;;0.35;;
39930;SDS011;26635;-35.248;149.138;2023-08-01T06:38:42;0.95;;;0.40;;
39930;SDS011;26635;-35.248;149.138;2023-08-01T06:41:12;3.90;;;0.60;;
39930;SDS011;26635;-35.248;149.138;2023-08-01T06:43:43;2.95;;;0.28;;
39930;SDS011;26635;-35.248;149.138;2023-08-01T06:46:14;5.70;;;0.50;;
39930;SDS011;26635;-35.248;149.138;2023-08-01T06:48:44;3.25;;;0.50;;
39930;SDS011;26635;-35.248;149.138;2023-08-01T06:51:15;1.88;;;0.93;;
39930;SDS011;26635;-35.248;149.138;2023-08-01T06:53:45;5.95;;;1.30;;
39930;SDS011;26635;-35.248;149.138;2023-08-01T06:56:16;0.75;;;0.47;;
39930;SDS011;26635;-35.248;149.138;2023-08-01T06:58:46;10.95;;;2.72;;
39930;SDS011;26635;-35.248;149.138;2023-08-01T07:01:17;7.78;;;1.13;;
39930;SDS011;26635;-35.248;149.138;2023-08-01T07:03:48;10.77;;;2.80;;
39930;SDS011;26635;-35.248;149.138;2023-08-01T07:06:22;8.07;;;1.27;;
39930;SDS011;26635;-35.248;149.138;2023-08-01T07:08:54;1.20;;;0.38;;
39930;SDS011;26635;-35.248;149.138;2023-08-01T07:11:27;0.82;;;0.20;;
39930;SDS011;26635;-35.248;149.138;2023-08-01T07:13:59;2.72;;;0.55;;
39930;SDS011;26635;-35.248;149.138;2023-08-01T07:16:29;1.73;;;0.60;;
39930;SDS011;26635;-35.248;149.138;2023-08-01T07:19:00;3.60;;;0.50;;
39930;SDS011;26635;-35.248;149.138;2023-08-01T07:21:31;0.55;;;0.28;;
39930;SDS011;26635;-35.248;149.138;2023-08-01T07:24:01;2.17;;;0.30;;
39930;SDS011;26635;-35.248;149.138;2023-08-01T07:26:32;1.00;;;0.30;;
39930;SDS011;26635;-35.248;149.138;2023-08-01T07:29:02;0.47;;;0.20;;
39930;SDS011;26635;-35.248;149.138;2023-08-01T07:31:33;2.28;;;0.30;;
39930;SDS011;26635;-35.248;149.138;2023-08-01T07:34:03;1.25;;;0.28;;
39930;SDS011;26635;-35.248;149.138;2023-08-01T07:36:34;0.75;;;0.30;;
39930;SDS011;26635;-35.248;149.138;2023-08-01T07:39:05;1.88;;;0.35;;
39930;SDS011;26635;-35.248;149.138;2023-08-01T07:41:35;0.95;;;0.40;;
39930;SDS011;26635;-35.248;149.138;2023-08-01T07:44:06;2.70;;;0.40;;
39930;SDS011;26635;-35.248;149.138;2023-08-01T07:46:36;1.48;;;0.50;;
39930;SDS011;26635;-35.248;149.138;2023-08-01T07:49:08;2.03;;;0.60;;
39930;SDS011;26635;-35.248;149.138;2023-08-01T07:51:39;1.08;;;0.52;;
39930;SDS011;26635;-35.248;149.138;2023-08-01T07:54:10;4.32;;;0.60;;
39930;SDS011;26635;-35.248;149.138;2023-08-01T07:56:42;1.58;;;0.77;;
39930;SDS011;26635;-35.248;149.138;2023-08-01T07:59:14;1.75;;;0.55;;
39930;SDS011;26635;-35.248;149.138;2023-08-01T08:01:47;1.95;;;0.52;;
39930;SDS011;26635;-35.248;149.138;2023-08-01T08:04:23;1.33;;;0.57;;
39930;SDS011;26635;-35.248;149.138;2023-08-01T08:06:54;2.40;;;0.70;;
39930;SDS011;26635;-35.248;149.138;2023-08-01T08:09:28;4.57;;;1.40;;
39930;SDS011;26635;-35.248;149.138;2023-08-01T08:12:00;3.63;;;1.65;;
39930;SDS011;26635;-35.248;149.138;2023-08-01T08:14:30;2.97;;;1.55;;
39930;SDS011;26635;-35.248;149.138;2023-08-01T08:17:01;3.83;;;1.55;;
39930;SDS011;26635;-35.248;149.138;2023-08-01T08:19:32;3.05;;;1.45;;
39930;SDS011;26635;-35.248;149.138;2023-08-01T08:22:02;3.92;;;1.52;;
39930;SDS011;26635;-35.248;149.138;2023-08-01T08:24:33;3.95;;;1.52;;
39930;SDS011;26635;-35.248;149.138;2023-08-01T08:27:05;2.67;;;0.90;;
39930;SDS011;26635;-35.248;149.138;2023-08-01T08:29:35;5.68;;;1.00;;
39930;SDS011;26635;-35.248;149.138;2023-08-01T08:32:06;2.22;;;0.50;;
39930;SDS011;26635;-35.248;149.138;2023-08-01T08:34:36;3.55;;;0.90;;
39930;SDS011;26635;-35.248;149.138;2023-08-01T08:37:09;1.98;;;0.85;;
39930;SDS011;26635;-35.248;149.138;2023-08-01T08:39:41;1.88;;;0.80;;
39930;SDS011;26635;-35.248;149.138;2023-08-01T08:42:12;10.75;;;4.97;;
39930;SDS011;26635;-35.248;149.138;2023-08-01T08:44:43;10.27;;;5.32;;
39930;SDS011;26635;-35.248;149.138;2023-08-01T08:47:14;7.68;;;4.20;;
39930;SDS011;26635;-35.248;149.138;2023-08-01T08:49:48;6.82;;;3.83;;
39930;SDS011;26635;-35.248;149.138;2023-08-01T08:52:21;8.48;;;4.13;;
39930;SDS011;26635;-35.248;149.138;2023-08-01T08:54:54;5.90;;;3.20;;
39930;SDS011;26635;-35.248;149.138;2023-08-01T08:57:25;9.73;;;4.40;;
39930;SDS011;26635;-35.248;149.138;2023-08-01T08:59:56;6.97;;;3.88;;
39930;SDS011;26635;-35.248;149.138;2023-08-01T09:02:28;6.70;;;3.80;;
39930;SDS011;26635;-35.248;149.138;2023-08-01T09:05:00;4.53;;;2.72;;
39930;SDS011;26635;-35.248;149.138;2023-08-01T09:07:31;7.22;;;3.38;;
39930;SDS011;26635;-35.248;149.138;2023-08-01T09:10:08;4.25;;;2.45;;
39930;SDS011;26635;-35.248;149.138;2023-08-01T09:12:39;5.30;;;2.40;;
39930;SDS011;26635;-35.248;149.138;2023-08-01T09:15:10;4.90;;;2.00;;
39930;SDS011;26635;-35.248;149.138;2023-08-01T09:17:51;5.25;;;1.77;;
39930;SDS011;26635;-35.248;149.138;2023-08-01T09:20:28;4.65;;;1.45;;
39930;SDS011;26635;-35.248;149.138;2023-08-01T09:23:08;6.38;;;2.35;;
39930;SDS011;26635;-35.248;149.138;2023-08-01T09:25:42;3.53;;;1.90;;
39930;SDS011;26635;-35.248;149.138;2023-08-01T09:28:20;5.38;;;2.08;;
39930;SDS011;26635;-35.248;149.138;2023-08-01T09:30:52;7.32;;;1.77;;
39930;SDS011;26635;-35.248;149.138;2023-08-01T09:33:25;3.42;;;1.92;;
39930;SDS011;26635;-35.248;149.138;2023-08-01T09:35:55;9.20;;;4.22;;
39930;SDS011;26635;-35.248;149.138;2023-08-01T09:38:33;10.77;;;5.18;;
39930;SDS011;26635;-35.248;149.138;2023-08-01T09:41:04;14.30;;;7.43;;
39930;SDS011;26635;-35.248;149.138;2023-08-01T09:43:35;14.00;;;7.95;;
39930;SDS011;26635;-35.248;149.138;2023-08-01T09:46:06;12.18;;;6.22;;
39930;SDS011;26635;-35.248;149.138;2023-08-01T09:48:37;15.85;;;6.60;;
39930;SDS011;26635;-35.248;149.138;2023-08-01T09:53:49;13.32;;;5.60;;
39930;SDS011;26635;-35.248;149.138;2023-08-01T09:56:23;10.93;;;5.05;;
39930;SDS011;26635;-35.248;149.138;2023-08-01T09:58:56;6.38;;;3.40;;
39930;SDS011;26635;-35.248;149.138;2023-08-01T10:01:29;4.43;;;2.03;;
39930;SDS011;26635;-35.248;149.138;2023-08-01T10:04:02;4.97;;;2.17;;
39930;SDS011;26635;-35.248;149.138;2023-08-01T10:06:37;3.30;;;1.65;;
39930;SDS011;26635;-35.248;149.138;2023-08-01T10:09:10;5.47;;;1.45;;
39930;SDS011;26635;-35.248;149.138;2023-08-01T10:11:42;6.68;;;1.95;;
39930;SDS011;26635;-35.248;149.138;2023-08-01T10:14:14;2.90;;;1.05;;
39930;SDS011;26635;-35.248;149.138;2023-08-01T10:16:46;4.13;;;0.90;;
39930;SDS011;26635;-35.248;149.138;2023-08-01T10:19:17;3.58;;;1.27;;
39930;SDS011;26635;-35.248;149.138;2023-08-01T10:21:49;3.72;;;1.20;;
39930;SDS011;26635;-35.248;149.138;2023-08-01T10:24:22;3.15;;;0.82;;
39930;SDS011;26635;-35.248;149.138;2023-08-01T10:26:55;2.25;;;0.90;;
39930;SDS011;26635;-35.248;149.138;2023-08-01T10:29:34;2.47;;;0.90;;
39930;SDS011;26635;-35.248;149.138;2023-08-01T10:32:08;2.17;;;0.60;;
39930;SDS011;26635;-35.248;149.138;2023-08-01T10:34:39;1.80;;;0.95;;
39930;SDS011;26635;-35.248;149.138;2023-08-01T10:37:20;3.20;;;0.95;;
39930;SDS011;26635;-35.248;149.138;2023-08-01T10:39:58;2.25;;;0.73;;
39930;SDS011;26635;-35.248;149.138;2023-08-01T10:42:42;2.45;;;0.75;;
39930;SDS011;26635;-35.248;149.138;2023-08-01T10:45:20;3.72;;;0.80;;
39930;SDS011;26635;-35.248;149.138;2023-08-01T10:48:06;4.47;;;0.73;;
39930;SDS011;26635;-35.248;149.138;2023-08-01T10:50:38;2.28;;;0.93;;
39930;SDS011;26635;-35.248;149.138;2023-08-01T10:53:09;2.15;;;0.90;;
39930;SDS011;26635;-35.248;149.138;2023-08-01T10:55:40;4.05;;;1.10;;
39930;SDS011;26635;-35.248;149.138;2023-08-01T10:58:12;1.27;;;0.82;;
39930;SDS011;26635;-35.248;149.138;2023-08-01T11:00:43;2.08;;;0.90;;
39930;SDS011;26635;-35.248;149.138;2023-08-01T11:03:14;2.47;;;1.55;;
39930;SDS011;26635;-35.248;149.138;2023-08-01T11:05:45;2.85;;;1.05;;
39930;SDS011;26635;-35.248;149.138;2023-08-01T11:08:35;6.53;;;2.10;;
39930;SDS011;26635;-35.248;149.138;2023-08-01T11:11:25;3.17;;;1.30;;
39930;SDS011;26635;-35.248;149.138;2023-08-01T11:13:55;2.65;;;0.85;;
39930;SDS011;26635;-35.248;149.138;2023-08-01T11:16:26;2.40;;;1.05;;
39930;SDS011;26635;-35.248;149.138;2023-08-01T11:18:56;3.53;;;1.63;;
39930;SDS011;26635;-35.248;149.138;2023-08-01T11:21:27;5.88;;;1.88;;
39930;SDS011;26635;-35.248;149.138;2023-08-01T11:23:58;9.05;;;4.32;;
39930;SDS011;26635;-35.248;149.138;2023-08-01T11:26:29;8.77;;;4.82;;
39930;SDS011;26635;-35.248;149.138;2023-08-01T11:29:03;7.22;;;5.05;;
39930;SDS011;26635;-35.248;149.138;2023-08-01T11:31:33;9.98;;;6.50;;
39930;SDS011;26635;-35.248;149.138;2023-08-01T11:34:04;15.10;;;7.43;;
39930;SDS011;26635;-35.248;149.138;2023-08-01T11:36:36;13.63;;;7.40;;
39930;SDS011;26635;-35.248;149.138;2023-08-01T11:39:08;13.27;;;7.22;;
39930;SDS011;26635;-35.248;149.138;2023-08-01T11:41:38;13.95;;;7.30;;
39930;SDS011;26635;-35.248;149.138;2023-08-01T11:44:09;11.38;;;6.97;;
39930;SDS011;26635;-35.248;149.138;2023-08-01T11:46:40;11.93;;;7.22;;
39930;SDS011;26635;-35.248;149.138;2023-08-01T11:49:13;11.25;;;7.93;;
39930;SDS011;26635;-35.248;149.138;2023-08-01T11:51:44;10.30;;;6.15;;
39930;SDS011;26635;-35.248;149.138;2023-08-01T11:54:15;14.98;;;9.13;;
39930;SDS011;26635;-35.248;149.138;2023-08-01T11:56:46;11.88;;;7.57;;
39930;SDS011;26635;-35.248;149.138;2023-08-01T11:59:17;11.25;;;6.47;;
39930;SDS011;26635;-35.248;149.138;2023-08-01T12:01:47;12.68;;;7.32;;
39930;SDS011;26635;-35.248;149.138;2023-08-01T12:04:25;12.82;;;7.25;;
39930;SDS011;26635;-35.248;149.138;2023-08-01T12:06:57;11.05;;;6.50;;
39930;SDS011;26635;-35.248;149.138;2023-08-01T12:09:31;13.05;;;7.13;;
39930;SDS011;26635;-35.248;149.138;2023-08-01T12:12:02;10.90;;;6.00;;
39930;SDS011;26635;-35.248;149.138;2023-08-01T12:14:33;11.48;;;6.90;;
39930;SDS011;26635;-35.248;149.138;2023-08-01T12:17:13;10.40;;;5.82;;
39930;SDS011;26635;-35.248;149.138;2023-08-01T12:19:44;8.70;;;5.78;;
39930;SDS011;26635;-35.248;149.138;2023-08-01T12:22:14;11.48;;;5.97;;
39930;SDS011;26635;-35.248;149.138;2023-08-01T12:24:46;12.52;;;6.35;;
39930;SDS011;26635;-35.248;149.138;2023-08-01T12:27:16;7.65;;;5.47;;
39930;SDS011;26635;-35.248;149.138;2023-08-01T12:29:47;11.07;;;6.50;;
39930;SDS011;26635;-35.248;149.138;2023-08-01T12:32:17;10.73;;;6.53;;
39930;SDS011;26635;-35.248;149.138;2023-08-01T12:34:48;12.02;;;6.90;;
39930;SDS011;26635;-35.248;149.138;2023-08-01T12:37:18;13.60;;;6.93;;
39930;SDS011;26635;-35.248;149.138;2023-08-01T12:39:49;14.65;;;7.20;;
39930;SDS011;26635;-35.248;149.138;2023-08-01T12:42:21;10.70;;;5.90;;
39930;SDS011;26635;-35.248;149.138;2023-08-01T12:44:52;11.27;;;5.22;;
39930;SDS011;26635;-35.248;149.138;2023-08-01T12:47:22;8.55;;;4.80;;
39930;SDS011;26635;-35.248;149.138;2023-08-01T12:49:53;10.15;;;5.07;;
39930;SDS011;26635;-35.248;149.138;2023-08-01T12:52:24;10.10;;;5.72;;
39930;SDS011;26635;-35.248;149.138;2023-08-01T12:54:56;10.95;;;5.80;;
39930;SDS011;26635;-35.248;149.138;2023-08-01T12:57:26;8.77;;;5.57;;
39930;SDS011;26635;-35.248;149.138;2023-08-01T12:59:57;9.43;;;4.95;;
39930;SDS011;26635;-35.248;149.138;2023-08-01T13:02:29;10.43;;;5.72;;
39930;SDS011;26635;-35.248;149.138;2023-08-01T13:05:00;9.23;;;5.03;;
39930;SDS011;26635;-35.248;149.138;2023-08-01T13:07:30;8.90;;;5.55;;
39930;SDS011;26635;-35.248;149.138;2023-08-01T13:10:01;8.05;;;5.18;;
39930;SDS011;26635;-35.248;149.138;2023-08-01T13:12:32;8.07;;;5.32;;
39930;SDS011;26635;-35.248;149.138;2023-08-01T13:15:04;14.30;;;6.53;;
39930;SDS011;26635;-35.248;149.138;2023-08-01T13:17:44;9.98;;;5.28;;
39930;SDS011;26635;-35.248;149.138;2023-08-01T13:20:14;11.10;;;4.75;;
39930;SDS011;26635;-35.248;149.138;2023-08-01T13:22:45;9.55;;;6.03;;
39930;SDS011;26635;-35.248;149.138;2023-08-01T13:25:18;8.63;;;5.10;;
39930;SDS011;26635;-35.248;149.138;2023-08-01T13:27:48;8.98;;;5.28;;
39930;SDS011;26635;-35.248;149.138;2023-08-01T13:30:20;10.43;;;6.18;;
39930;SDS011;26635;-35.248;149.138;2023-08-01T13:32:50;11.65;;;6.68;;
39930;SDS011;26635;-35.248;149.138;2023-08-01T13:35:21;9.32;;;5.68;;
39930;SDS011;26635;-35.248;149.138;2023-08-01T13:37:51;9.23;;;4.85;;
39930;SDS011;26635;-35.248;149.138;2023-08-01T13:40:24;11.88;;;5.93;;
39930;SDS011;26635;-35.248;149.138;2023-08-01T13:42:54;12.38;;;5.97;;
39930;SDS011;26635;-35.248;149.138;2023-08-01T13:45:25;12.25;;;6.25;;
39930;SDS011;26635;-35.248;149.138;2023-08-01T13:47:57;10.02;;;5.75;;
39930;SDS011;26635;-35.248;149.138;2023-08-01T13:50:28;11.02;;;5.47;;
39930;SDS011;26635;-35.248;149.138;2023-08-01T13:52:59;9.45;;;5.63;;
39930;SDS011;26635;-35.248;149.138;2023-08-01T13:55:31;9.68;;;5.32;;
39930;SDS011;26635;-35.248;149.138;2023-08-01T13:58:02;13.65;;;7.00;;
39930;SDS011;26635;-35.248;149.138;2023-08-01T14:00:32;13.15;;;7.07;;
39930;SDS011;26635;-35.248;149.138;2023-08-01T14:03:03;14.10;;;7.57;;
39930;SDS011;26635;-35.248;149.138;2023-08-01T14:05:33;17.70;;;7.72;;
39930;SDS011;26635;-35.248;149.138;2023-08-01T14:08:04;13.85;;;7.25;;
39930;SDS011;26635;-35.248;149.138;2023-08-01T14:10:35;13.68;;;6.72;;
39930;SDS011;26635;-35.248;149.138;2023-08-01T14:13:05;10.70;;;6.50;;
39930;SDS011;26635;-35.248;149.138;2023-08-01T14:15:36;11.63;;;6.10;;
39930;SDS011;26635;-35.248;149.138;2023-08-01T14:18:06;12.00;;;5.80;;
39930;SDS011;26635;-35.248;149.138;2023-08-01T14:20:36;9.40;;;5.30;;
39930;SDS011;26635;-35.248;149.138;2023-08-01T14:23:06;8.07;;;4.37;;
39930;SDS011;26635;-35.248;149.138;2023-08-01T14:25:37;10.13;;;5.23;;
39930;SDS011;26635;-35.248;149.138;2023-08-01T14:28:08;9.03;;;4.57;;
39930;SDS011;26635;-35.248;149.138;2023-08-01T14:30:40;9.70;;;5.30;;
39930;SDS011;26635;-35.248;149.138;2023-08-01T14:33:10;8.73;;;5.40;;
39930;SDS011;26635;-35.248;149.138;2023-08-01T14:35:42;11.63;;;5.93;;